createdAt,value
2022-08-26T00:02:12.781Z,100246.34
2022-08-26T00:04:40.527Z,100245.30
2022-08-26T00:07:08.467Z,100242.11
2022-08-26T00:09:38.942Z,100239.75
2022-08-26T00:12:09.306Z,100240.70
2022-08-26T00:14:39.725Z,100237.20
2022-08-26T00:17:08.646Z,100238.27
2022-08-26T00:19:36.310Z,100237.38
2022-08-26T00:22:04.218Z,100233.02
2022-08-26T00:24:32.614Z,100232.85
2022-08-26T00:27:00.387Z,100236.52
2022-08-26T00:29:28.453Z,100232.40
2022-08-26T00:31:59.509Z,100233.15
2022-08-26T00:34:27.155Z,100236.02
2022-08-26T00:36:54.621Z,100236.25
2022-08-26T00:39:22.145Z,100232.33
2022-08-26T00:41:50.439Z,100233.13
2022-08-26T00:44:19.439Z,100230.05
2022-08-26T00:46:51.304Z,100226.23
2022-08-26T00:49:40.893Z,100231.83
2022-08-26T00:52:14.501Z,100225.83
2022-08-26T00:54:51.026Z,100232.27
2022-08-26T00:57:22.281Z,100229.29
2022-08-26T00:59:56.580Z,100228.98
2022-08-26T01:02:24.708Z,100226.83
2022-08-26T01:04:56.483Z,100227.03
2022-08-26T01:07:30.312Z,100225.50
2022-08-26T01:10:00.689Z,100226.78
2022-08-26T01:12:32.669Z,100223.36
2022-08-26T01:15:02.070Z,100225.58
2022-08-26T01:17:30.537Z,100225.11
2022-08-26T01:20:12.990Z,100221.77
2022-08-26T01:23:03.404Z,100222.33
2022-08-26T01:25:34.422Z,100224.92
2022-08-26T01:28:06.436Z,100225.35
2022-08-26T01:30:35.392Z,100225.39
2022-08-26T01:33:06.943Z,100226.48
2022-08-26T01:35:34.616Z,100227.33
2022-08-26T01:38:02.121Z,100229.18
2022-08-26T01:40:33.909Z,100228.90
2022-08-26T01:43:03.778Z,100229.33
2022-08-26T01:45:34.474Z,100227.17
2022-08-26T01:48:07.550Z,100229.40
2022-08-26T01:50:36.960Z,100230.15
2022-08-26T01:53:11.065Z,100228.68
2022-08-26T01:55:42.915Z,100225.07
2022-08-26T01:58:17.885Z,100227.27
2022-08-26T02:00:46.974Z,100223.39
2022-08-26T02:03:16.496Z,100223.25
2022-08-26T02:05:58.125Z,100224.42
2022-08-26T02:08:35.947Z,100226.65
2022-08-26T02:11:04.084Z,100228.88
2022-08-26T02:13:34.834Z,100231.92
2022-08-26T02:16:03.840Z,100236.45
2022-08-26T02:18:37.969Z,100235.61
2022-08-26T02:21:07.537Z,100235.79
2022-08-26T02:23:35.867Z,100235.55
2022-08-26T02:26:09.215Z,100234.90
2022-08-26T02:28:45.628Z,100237.23
2022-08-26T02:31:13.135Z,100238.28
2022-08-26T02:33:43.105Z,100234.71
2022-08-26T02:36:13.381Z,100235.00
2022-08-26T02:38:41.092Z,100232.91
2022-08-26T02:41:11.369Z,100231.88
2022-08-26T02:43:38.910Z,100230.88
2022-08-26T02:46:06.365Z,100232.41
2022-08-26T02:48:34.135Z,100233.74
2022-08-26T02:51:04.099Z,100233.25
2022-08-26T02:53:35.395Z,100231.39
2022-08-26T02:56:07.352Z,100235.86
2022-08-26T02:58:35.334Z,100235.58
2022-08-26T03:01:04.854Z,100237.67
2022-08-26T03:03:33.024Z,100235.23
2022-08-26T03:06:01.094Z,100234.21
2022-08-26T03:08:28.590Z,100233.58
2022-08-26T03:10:56.067Z,100232.95
2022-08-26T03:13:23.476Z,100228.86
2022-08-26T03:15:50.965Z,100225.66
2022-08-26T03:18:18.617Z,100223.58
2022-08-26T03:20:48.279Z,100226.04
2022-08-26T03:23:16.366Z,100225.66
2022-08-26T03:25:53.733Z,100227.78
2022-08-26T03:28:21.262Z,100229.83
2022-08-26T03:30:49.162Z,100227.11
2022-08-26T03:33:16.632Z,100229.92
2022-08-26T03:35:47.657Z,100230.80
2022-08-26T03:38:19.841Z,100230.38
2022-08-26T03:40:47.872Z,100229.34
2022-08-26T03:43:17.093Z,100222.01
2022-08-26T03:45:44.638Z,100222.11
2022-08-26T03:48:14.177Z,100220.17
2022-08-26T03:50:42.396Z,100219.10
2022-08-26T03:53:12.654Z,100220.81
2022-08-26T03:55:41.420Z,100221.73
2022-08-26T03:58:09.086Z,100222.08
2022-08-26T04:00:36.800Z,100219.85
2022-08-26T04:03:04.386Z,100219.35
2022-08-26T04:05:32.105Z,100217.10
2022-08-26T04:07:59.867Z,100216.98
2022-08-26T04:10:28.977Z,100216.59
2022-08-26T04:12:59.405Z,100213.79
2022-08-26T04:15:27.854Z,100215.74
2022-08-26T04:17:55.955Z,100216.04
2022-08-26T04:20:26.710Z,100217.86
2022-08-26T04:22:54.217Z,100219.29
2022-08-26T04:25:22.398Z,100218.05
2022-08-26T04:27:52.182Z,100221.04
2022-08-26T04:30:20.291Z,100218.97
2022-08-26T04:32:49.812Z,100219.92
2022-08-26T04:35:17.714Z,100215.98
2022-08-26T04:37:45.181Z,100216.02
2022-08-26T04:40:12.862Z,100219.66
2022-08-26T04:42:40.368Z,100220.60
2022-08-26T04:45:10.259Z,100219.14
2022-08-26T04:47:38.220Z,100220.98
2022-08-26T04:50:08.314Z,100221.35
2022-08-26T04:52:38.632Z,100222.73
2022-08-26T04:55:08.588Z,100222.30
2022-08-26T04:57:36.420Z,100226.21
2022-08-26T05:00:06.840Z,100227.17
2022-08-26T05:02:34.421Z,100225.02
2022-08-26T05:05:02.548Z,100225.27
2022-08-26T05:07:31.129Z,100227.30
2022-08-26T05:10:00.181Z,100229.27
2022-08-26T05:12:31.305Z,100224.73
2022-08-26T05:14:59.852Z,100226.10
2022-08-26T05:17:27.340Z,100226.68
2022-08-26T05:19:55.387Z,100226.51
2022-08-26T05:22:22.958Z,100229.00
2022-08-26T05:24:50.409Z,100221.67
2022-08-26T05:27:17.826Z,100221.77
2022-08-26T05:29:45.800Z,100219.55
2022-08-26T05:32:13.661Z,100219.17
2022-08-26T05:34:43.024Z,100220.63
2022-08-26T05:37:10.770Z,100221.20
2022-08-26T05:39:41.226Z,100221.52
2022-08-26T05:42:11.008Z,100221.71
2022-08-26T05:44:53.546Z,100224.36
2022-08-26T05:47:21.654Z,100222.73
2022-08-26T05:49:51.619Z,100219.02
2022-08-26T05:52:19.667Z,100216.25
2022-08-26T05:54:47.310Z,100218.77
2022-08-26T05:57:15.860Z,100214.11
2022-08-26T05:59:43.783Z,100217.34
2022-08-26T06:02:11.252Z,100217.22
2022-08-26T06:04:41.393Z,100215.91
2022-08-26T06:07:13.390Z,100215.13
2022-08-26T06:09:41.427Z,100211.55
2022-08-26T06:12:09.658Z,100210.83
2022-08-26T06:14:37.082Z,100212.63
2022-08-26T06:17:04.619Z,100212.13
2022-08-26T06:19:33.123Z,100212.88
2022-08-26T06:22:23.291Z,100214.39
2022-08-26T06:25:07.875Z,100215.29
2022-08-26T06:27:37.398Z,100220.93
2022-08-26T06:30:05.462Z,100219.98
2022-08-26T06:32:33.881Z,100222.60
2022-08-26T06:35:01.630Z,100221.98
2022-08-26T06:37:29.442Z,100219.60
2022-08-26T06:39:57.081Z,100219.73
2022-08-26T06:42:25.247Z,100222.70
2022-08-26T06:44:54.121Z,100218.14
2022-08-26T06:47:22.038Z,100222.09
2022-08-26T06:49:50.369Z,100223.29
2022-08-26T06:52:22.983Z,100222.87
2022-08-26T06:54:52.155Z,100233.11
2022-08-26T06:57:20.555Z,100229.45
2022-08-26T06:59:51.242Z,100233.50
2022-08-26T07:02:19.603Z,100232.05
2022-08-26T07:04:48.410Z,100232.45
2022-08-26T07:07:18.683Z,100233.50
2022-08-26T07:09:49.542Z,100231.30
2022-08-26T07:12:20.948Z,100230.89
2022-08-26T07:14:48.513Z,100235.33
2022-08-26T07:17:16.664Z,100233.61
2022-08-26T07:19:44.193Z,100234.64
2022-08-26T07:22:11.821Z,100227.45
2022-08-26T07:24:42.422Z,100231.33
2022-08-26T07:27:13.781Z,100224.38
2022-08-26T07:29:43.300Z,100225.50
2022-08-26T07:32:13.200Z,100229.56
2022-08-26T07:34:42.872Z,100226.75
2022-08-26T07:37:11.528Z,100231.90
2022-08-26T07:39:40.436Z,100231.46
2022-08-26T07:42:09.671Z,100231.74
2022-08-26T07:44:38.050Z,100230.23
2022-08-26T07:47:10.436Z,100223.83
2022-08-26T07:49:57.951Z,100223.64
2022-08-26T07:52:27.975Z,100223.73
2022-08-26T07:54:58.467Z,100223.25
2022-08-26T07:57:27.273Z,100224.38
2022-08-26T07:59:55.912Z,100224.56
2022-08-26T08:02:25.772Z,100220.50
2022-08-26T08:04:54.451Z,100220.80
2022-08-26T08:07:25.854Z,100220.45
2022-08-26T08:10:13.454Z,100220.18
2022-08-26T08:12:41.884Z,100221.30
2022-08-26T08:15:13.182Z,100220.34
2022-08-26T08:17:44.190Z,100218.62
2022-08-26T08:20:13.843Z,100217.63
2022-08-26T08:22:43.032Z,100221.09
2022-08-26T08:25:12.233Z,100219.40
2022-08-26T08:27:42.943Z,100220.89
2022-08-26T08:30:13.786Z,100222.11
2022-08-26T08:32:45.355Z,100218.08
2022-08-26T08:35:16.158Z,100221.54
2022-08-26T08:37:45.104Z,100222.73
2022-08-26T08:40:18.799Z,100218.62
2022-08-26T08:42:55.413Z,100221.85
2022-08-26T08:45:36.277Z,100220.97
2022-08-26T08:48:33.370Z,100222.47
2022-08-26T08:51:32.910Z,100219.31
2022-08-26T08:54:02.569Z,100216.42
2022-08-26T08:56:40.750Z,100217.55
2022-08-26T08:59:20.244Z,100219.27
2022-08-26T09:02:04.898Z,100216.37
2022-08-26T09:04:57.929Z,100223.19
2022-08-26T09:07:52.302Z,100221.62
2022-08-26T09:10:31.159Z,100222.09
2022-08-26T09:13:01.285Z,100221.98
2022-08-26T09:15:53.693Z,100219.41
2022-08-26T09:18:46.057Z,100216.69
2022-08-26T09:21:17.941Z,100215.34
2022-08-26T09:23:49.708Z,100216.70
2022-08-26T09:26:19.767Z,100214.59
2022-08-26T09:28:55.122Z,100217.55
2022-08-26T09:31:30.790Z,100216.29
2022-08-26T09:34:21.187Z,100216.15
2022-08-26T09:36:50.324Z,100218.46
2022-08-26T09:39:23.684Z,100216.21
2022-08-26T09:42:09.600Z,100210.83
2022-08-26T09:45:00.128Z,100204.05
2022-08-26T09:47:32.786Z,100204.95
2022-08-26T09:50:40.189Z,100202.98
2022-08-26T09:53:30.672Z,100202.81
2022-08-26T09:56:13.925Z,100204.67
2022-08-26T09:58:44.013Z,100206.08
2022-08-26T10:01:36.340Z,100199.41
2022-08-26T10:04:12.058Z,100197.58
2022-08-26T10:07:01.718Z,100197.14
2022-08-26T10:09:35.395Z,100194.93
2022-08-26T10:12:11.825Z,100198.20
2022-08-26T10:14:59.022Z,100195.20
2022-08-26T10:17:36.685Z,100189.11
2022-08-26T10:20:23.229Z,100183.02
2022-08-26T10:22:54.199Z,100183.27
2022-08-26T10:25:33.144Z,100183.45
2022-08-26T10:28:08.534Z,100182.77
2022-08-26T10:30:48.726Z,100180.30
2022-08-26T10:33:17.915Z,100178.08
2022-08-26T10:35:56.313Z,100175.50
2022-08-26T10:38:30.397Z,100171.02
2022-08-26T10:41:17.002Z,100170.07
2022-08-26T10:43:55.367Z,100168.66
2022-08-26T10:46:28.449Z,100168.96
2022-08-26T10:49:03.340Z,100170.55
2022-08-26T10:51:42.138Z,100167.65
2022-08-26T10:54:20.338Z,100167.41
2022-08-26T10:57:20.342Z,100161.08
2022-08-26T11:00:30.044Z,100160.25
2022-08-26T11:03:09.551Z,100155.91
2022-08-26T11:06:18.360Z,100159.19
2022-08-26T11:08:47.892Z,100150.08
2022-08-26T11:11:48.023Z,100149.20
2022-08-26T11:14:28.549Z,100145.04
2022-08-26T11:16:59.598Z,100140.47
2022-08-26T11:19:50.548Z,100137.19
2022-08-26T11:22:25.707Z,100134.92
2022-08-26T11:24:53.133Z,100135.08
2022-08-26T11:27:24.747Z,100126.99
2022-08-26T11:29:56.765Z,100120.55
2022-08-26T11:32:44.562Z,100117.12
2022-08-26T11:35:17.154Z,100119.12
2022-08-26T11:37:55.443Z,100119.66
2022-08-26T11:40:32.769Z,100120.84
2022-08-26T11:43:06.396Z,100116.73
2022-08-26T11:45:37.860Z,100118.27
2022-08-26T11:48:18.734Z,100113.98
2022-08-26T11:51:10.377Z,100111.84
2022-08-26T11:53:42.509Z,100116.48
2022-08-26T11:56:17.344Z,100109.58
2022-08-26T11:58:47.370Z,100104.16
2022-08-26T12:01:27.267Z,100103.35
2022-08-26T12:04:00.174Z,100103.91
2022-08-26T12:06:43.465Z,100097.14
2022-08-26T12:09:34.428Z,100094.34
2022-08-26T12:12:21.918Z,100096.58
2022-08-26T12:14:49.920Z,100095.74
2022-08-26T12:17:28.350Z,100095.63
2022-08-26T12:19:55.823Z,100094.42
2022-08-26T12:22:30.392Z,100087.80
2022-08-26T12:25:09.779Z,100088.33
2022-08-26T12:27:41.482Z,100088.77
2022-08-26T12:30:19.906Z,100085.94
2022-08-26T12:32:57.885Z,100084.42
2022-08-26T12:35:28.780Z,100081.11
2022-08-26T12:37:58.189Z,100081.08
2022-08-26T12:40:28.969Z,100078.88
2022-08-26T12:43:00.254Z,100073.80
2022-08-26T12:45:55.316Z,100075.16
2022-08-26T12:48:29.056Z,100068.85
2022-08-26T12:50:57.749Z,100063.47
2022-08-26T12:53:29.397Z,100060.91
2022-08-26T12:56:00.351Z,100059.25
2022-08-26T12:58:29.860Z,100060.89
2022-08-26T13:01:13.509Z,100053.25
2022-08-26T13:03:45.344Z,100055.31
2022-08-26T13:06:27.867Z,100050.36
2022-08-26T13:08:56.795Z,100046.80
2022-08-26T13:11:26.442Z,100043.92
2022-08-26T13:14:00.381Z,100043.02
2022-08-26T13:16:30.333Z,100038.39
2022-08-26T13:19:00.673Z,100036.92
2022-08-26T13:21:37.498Z,100034.05
2022-08-26T13:24:12.999Z,100028.42
2022-08-26T13:26:42.735Z,100030.03
2022-08-26T13:29:10.787Z,100032.73
2022-08-26T13:31:41.302Z,100032.33
2022-08-26T13:34:14.539Z,100028.05
2022-08-26T13:36:44.320Z,100030.66
2022-08-26T13:39:12.698Z,100025.88
2022-08-26T13:41:40.378Z,100022.98
2022-08-26T13:44:08.258Z,100023.58
2022-08-26T13:46:36.272Z,100017.60
2022-08-26T13:49:04.052Z,100016.39
2022-08-26T13:51:32.471Z,100011.09
2022-08-26T13:54:00.603Z,100000.27
2022-08-26T13:56:29.891Z,100003.77
2022-08-26T13:58:59.411Z,99998.34
2022-08-26T14:01:29.120Z,99993.11
2022-08-26T14:03:57.448Z,99995.23
2022-08-26T14:06:25.124Z,99989.85
2022-08-26T14:08:52.702Z,99989.23
2022-08-26T14:11:21.411Z,99989.80
2022-08-26T14:13:48.933Z,99985.73
2022-08-26T14:16:26.089Z,99986.21
2022-08-26T14:18:54.352Z,99986.95
2022-08-26T14:21:21.872Z,99982.31
2022-08-26T14:23:49.337Z,99978.07
2022-08-26T14:26:28.865Z,99973.08
2022-08-26T14:28:59.618Z,99974.49
2022-08-26T14:31:29.418Z,99971.91
2022-08-26T14:34:00.952Z,99972.46
2022-08-26T14:36:29.076Z,99968.67
2022-08-26T14:39:02.771Z,99963.81
2022-08-26T14:41:32.030Z,99961.75
2022-08-26T14:44:07.846Z,99959.02
2022-08-26T14:46:45.965Z,99957.11
2022-08-26T14:49:14.556Z,99955.96
2022-08-26T14:51:42.565Z,99954.90
2022-08-26T14:54:11.946Z,99950.30
2022-08-26T14:57:00.312Z,99950.95
2022-08-26T14:59:31.109Z,99949.18
2022-08-26T15:02:00.565Z,99952.51
2022-08-26T15:04:29.435Z,99948.47
2022-08-26T15:06:58.936Z,99944.36
2022-08-26T15:09:29.343Z,99942.37
2022-08-26T15:11:56.842Z,99941.48
2022-08-26T15:14:27.583Z,99939.86
2022-08-26T15:16:57.613Z,99940.55
2022-08-26T15:19:26.498Z,99940.06
2022-08-26T15:21:54.461Z,99934.17
2022-08-26T15:24:25.742Z,99933.85
2022-08-26T15:26:53.632Z,99934.08
2022-08-26T15:29:23.750Z,99931.89
2022-08-26T15:31:51.496Z,99931.27
2022-08-26T15:34:22.635Z,99930.42
2022-08-26T15:36:50.133Z,99932.46
2022-08-26T15:39:17.733Z,99930.52
2022-08-26T15:41:45.454Z,99931.45
2022-08-26T15:44:14.220Z,99930.29
2022-08-26T15:46:42.913Z,99927.67
2022-08-26T15:49:17.598Z,99922.65
2022-08-26T15:51:50.454Z,99923.34
2022-08-26T15:54:22.184Z,99918.86
2022-08-26T15:56:52.093Z,99920.91
2022-08-26T15:59:21.499Z,99917.73
2022-08-26T16:01:49.161Z,99917.31
2022-08-26T16:04:18.481Z,99915.75
2022-08-26T16:06:50.038Z,99911.06
2022-08-26T16:09:20.120Z,99907.84
2022-08-26T16:11:50.021Z,99908.23
2022-08-26T16:14:17.797Z,99906.21
2022-08-26T16:16:45.358Z,99904.34
2022-08-26T16:19:13.003Z,99905.23
2022-08-26T16:21:41.394Z,99900.03
2022-08-26T16:24:10.012Z,99901.77
2022-08-26T16:26:39.335Z,99899.77
2022-08-26T16:29:10.588Z,99900.98
2022-08-26T16:31:39.019Z,99900.63
2022-08-26T16:34:07.755Z,99897.09
2022-08-26T16:36:37.260Z,99895.73
2022-08-26T16:39:06.993Z,99890.48
2022-08-26T16:41:35.061Z,99894.90
2022-08-26T16:44:06.586Z,99889.64
2022-08-26T16:46:35.678Z,99884.62
2022-08-26T16:49:04.759Z,99880.52
2022-08-26T16:51:32.854Z,99882.50
2022-08-26T16:54:07.236Z,99887.47
2022-08-26T16:56:36.475Z,99883.89
2022-08-26T16:59:06.114Z,99883.38
2022-08-26T17:01:33.797Z,99884.18
2022-08-26T17:04:01.460Z,99884.02
2022-08-26T17:06:29.686Z,99885.14
2022-08-26T17:08:57.154Z,99883.36
2022-08-26T17:11:24.651Z,99884.12
2022-08-26T17:13:52.203Z,99884.70
2022-08-26T17:16:23.321Z,99882.54
2022-08-26T17:18:56.318Z,99886.53
2022-08-26T17:21:25.048Z,99885.05
2022-08-26T17:23:52.866Z,99882.48
2022-08-26T17:26:21.080Z,99883.02
2022-08-26T17:28:49.983Z,99880.73
2022-08-26T17:31:18.687Z,99885.73
2022-08-26T17:33:53.419Z,99886.08
2022-08-26T17:36:27.838Z,99886.33
2022-08-26T17:38:57.629Z,99881.52
2022-08-26T17:41:26.186Z,99885.17
2022-08-26T17:43:53.887Z,99885.87
2022-08-26T17:46:22.136Z,99886.52
2022-08-26T17:48:49.940Z,99886.76
2022-08-26T17:51:19.435Z,99891.94
2022-08-26T17:53:47.867Z,99894.04
2022-08-26T17:56:17.796Z,99895.98
2022-08-26T17:58:51.133Z,99897.88
2022-08-26T18:01:26.069Z,99894.87
2022-08-26T18:03:59.688Z,99897.52
2022-08-26T18:06:30.593Z,99899.72
2022-08-26T18:09:00.015Z,99901.64
2022-08-26T18:11:28.417Z,99901.42
2022-08-26T18:13:55.881Z,99905.67
2022-08-26T18:16:23.556Z,99904.38
2022-08-26T18:18:53.863Z,99908.41
2022-08-26T18:21:24.468Z,99913.02
2022-08-26T18:23:53.691Z,99914.29
2022-08-26T18:26:26.565Z,99919.35
2022-08-26T18:28:54.164Z,99924.73
2022-08-26T18:31:22.687Z,99930.44
2022-08-26T18:33:50.867Z,99934.27
2022-08-26T18:36:23.129Z,99933.98
2022-08-26T18:38:52.204Z,99934.09
2022-08-26T18:41:22.056Z,99937.44
2022-08-26T18:43:51.465Z,99935.42
2022-08-26T18:46:22.077Z,99943.80
2022-08-26T18:48:51.058Z,99940.87
2022-08-26T18:51:22.125Z,99943.52
2022-08-26T18:53:50.319Z,99944.36
2022-08-26T18:56:18.876Z,99946.05
2022-08-26T18:58:47.123Z,99947.45
2022-08-26T19:01:16.615Z,99947.22
2022-08-26T19:03:46.078Z,99941.73
2022-08-26T19:06:17.050Z,99942.17
2022-08-26T19:08:45.078Z,99939.89
2022-08-26T19:11:32.466Z,99936.74
2022-08-26T19:14:08.214Z,99936.40
2022-08-26T19:16:37.473Z,99938.42
2022-08-26T19:19:06.340Z,99936.29
2022-08-26T19:21:36.430Z,99937.98
2022-08-26T19:24:09.235Z,99940.39
2022-08-26T19:26:38.752Z,99940.52
2022-08-26T19:29:06.530Z,99941.18
2022-08-26T19:31:34.108Z,99937.20
2022-08-26T19:34:01.941Z,99940.77
2022-08-26T19:36:29.421Z,99942.52
2022-08-26T19:38:57.498Z,99943.54
2022-08-26T19:41:37.012Z,99943.57
2022-08-26T19:44:10.562Z,99947.51
2022-08-26T19:49:06.787Z,99947.52
2022-08-26T19:51:36.450Z,99944.84
2022-08-26T19:54:04.250Z,99950.94
2022-08-26T19:56:32.427Z,99949.21
2022-08-26T19:58:59.892Z,99950.23
2022-08-26T20:01:27.580Z,99952.41
2022-08-26T20:06:23.898Z,99957.05
2022-08-26T20:08:52.097Z,99959.16
2022-08-26T20:11:24.216Z,99961.58
2022-08-26T20:13:52.156Z,99958.68
2022-08-26T20:16:19.784Z,99956.61
2022-08-26T20:19:03.513Z,99959.33
2022-08-26T20:21:35.741Z,99957.73
2022-08-26T20:24:08.227Z,99957.17
2022-08-26T20:26:38.077Z,99958.41
2022-08-26T20:29:08.233Z,99957.75
2022-08-26T20:31:36.135Z,99955.50
2022-08-26T20:34:05.201Z,99957.53
2022-08-26T20:36:34.248Z,99958.36
2022-08-26T20:39:01.759Z,99956.61
2022-08-26T20:41:29.604Z,99956.08
2022-08-26T20:43:57.385Z,99956.45
2022-08-26T20:46:26.303Z,99953.77
2022-08-26T20:48:54.181Z,99956.05
2022-08-26T20:51:26.247Z,99954.35
2022-08-26T20:53:53.890Z,99956.45
2022-08-26T20:56:24.203Z,99952.54
2022-08-26T20:58:55.543Z,99955.16
2022-08-26T21:01:26.542Z,99952.12
2022-08-26T21:03:55.506Z,99950.75
2022-08-26T21:06:23.756Z,99949.98
2022-08-26T21:08:51.513Z,99951.77
2022-08-26T21:11:21.323Z,99951.81
2022-08-26T21:14:04.289Z,99949.68
2022-08-26T21:16:36.140Z,99951.23
2022-08-26T21:19:05.790Z,99954.88
2022-08-26T21:21:34.620Z,99952.17
2022-08-26T21:24:02.960Z,99956.70
2022-08-26T21:26:30.576Z,99953.50
2022-08-26T21:28:58.070Z,99957.17
2022-08-26T21:44:53.664Z,99957.58
2022-08-26T21:47:22.308Z,99957.61
2022-08-26T21:49:51.067Z,99956.64
2022-08-26T21:55:38.621Z,99956.73
2022-08-26T21:58:06.160Z,99955.35
2022-08-26T22:00:33.762Z,99953.73
2022-08-26T22:03:01.328Z,99949.80
2022-08-26T22:05:29.152Z,99952.15
2022-08-26T22:07:56.639Z,99951.64
2022-08-26T22:10:24.173Z,99951.00
2022-08-26T22:12:51.710Z,99951.32
2022-08-26T22:15:22.959Z,99952.42
2022-08-26T22:17:50.456Z,99955.09
2022-08-26T22:20:17.934Z,99955.48
2022-08-26T22:22:45.541Z,99955.63
2022-08-26T22:25:13.088Z,99954.17
2022-08-26T22:27:42.851Z,99949.96
2022-08-26T22:30:11.726Z,99951.70
2022-08-26T22:32:40.356Z,99951.01
2022-08-26T22:35:28.228Z,99952.20
2022-08-26T22:37:55.532Z,99955.00
2022-08-26T22:40:24.969Z,99955.40
2022-08-26T22:42:58.114Z,99959.27
2022-08-26T22:45:31.323Z,99959.77
2022-08-26T22:48:04.469Z,99961.41
2022-08-26T22:50:32.398Z,99960.83
2022-08-26T22:52:59.847Z,99955.77
2022-08-26T22:55:27.335Z,99955.95
2022-08-26T22:57:54.908Z,99952.41
2022-08-26T23:00:22.374Z,99948.32
2022-08-26T23:03:02.008Z,99946.59
2022-08-26T23:05:31.332Z,99946.10
2022-08-26T23:07:59.846Z,99938.66
2022-08-26T23:10:27.359Z,99937.55
2022-08-26T23:12:55.252Z,99933.94
2022-08-26T23:15:22.896Z,99933.02
2022-08-26T23:17:53.580Z,99934.27
2022-08-26T23:20:28.380Z,99937.11
2022-08-26T23:22:56.348Z,99934.27
2022-08-26T23:25:24.699Z,99937.58
2022-08-26T23:27:52.630Z,99939.92
2022-08-26T23:30:23.712Z,99936.51
2022-08-26T23:32:51.842Z,99935.45
2022-08-26T23:35:21.548Z,99932.88
2022-08-26T23:37:52.040Z,99932.45
2022-08-26T23:40:38.592Z,99924.89
2022-08-26T23:43:08.661Z,99924.13
2022-08-26T23:45:36.335Z,99920.66
2022-08-26T23:48:06.564Z,99918.61
2022-08-26T23:50:50.284Z,99914.23
2022-08-26T23:53:21.974Z,99911.70
2022-08-26T23:55:51.954Z,99908.45
2022-08-26T23:58:20.777Z,99906.05
